JST620 YPAD-YMAV
Flight info
| Callsign | JST620 |
|---|---|
| Flight time | 0h 56m |
| Altitude | 37000 |
| Route | AD V255 BENDO Y218 TYNDI Y53 ALAXO W382 IGNES W15 AV |
| Aircraft | A320/M-SDE3FGHIRWY/LB1 |
Departure
| Time | 2026-04-16 13:07 |
|---|---|
| Airport | Adelaide International Airport (YPAD) |
Arrival
| Time | 2026-04-16 14:03 |
|---|---|
| Airport | Melbourne Avalon International Airport (YMAV) |
| Time | Latitude | Longitude | Altitude | Speed | Heading |
|---|---|---|---|---|---|
| 2026-04-16 12:42 | -34.93883 | 138.53893 | 25 ft | 0 kts | 320° |
| 2026-04-16 12:57 | -34.93893 | 138.53903 | 26 ft | 4 kts | 320° |
| 2026-04-16 12:57 | -34.93913 | 138.53923 | 26 ft | 4 kts | 320° |
| 2026-04-16 12:58 | -34.93934 | 138.53944 | 25 ft | 4 kts | 325° |
| 2026-04-16 12:58 | -34.93957 | 138.53957 | 25 ft | 4 kts | 3° |
| 2026-04-16 12:58 | -34.93973 | 138.53950 | 22 ft | 0 kts | 50° |
| 2026-04-16 13:04 | -34.93961 | 138.53967 | 22 ft | 8 kts | 50° |
| 2026-04-16 13:05 | -34.93905 | 138.54047 | 22 ft | 15 kts | 49° |
| 2026-04-16 13:05 | -34.93895 | 138.54140 | 21 ft | 9 kts | 156° |
| 2026-04-16 13:05 | -34.93947 | 138.54192 | 22 ft | 11 kts | 138° |
| 2026-04-16 13:05 | -34.94009 | 138.54252 | 22 ft | 12 kts | 147° |
| 2026-04-16 13:06 | -34.94130 | 138.54219 | 23 ft | 35 kts | 231° |
| 2026-04-16 13:06 | -34.94436 | 138.53783 | 17 ft | 98 kts | 230° |
| 2026-04-16 13:06 | -34.94985 | 138.52985 | 20 ft | 144 kts | 230° |
| 2026-04-16 13:06 | -34.95705 | 138.51939 | 175 ft | 169 kts | 229° |
| 2026-04-16 13:07 | -34.96464 | 138.50836 | 723 ft | 170 kts | 229° |
| 2026-04-16 13:07 | -34.97225 | 138.49729 | 1273 ft | 172 kts | 229° |
| 2026-04-16 13:07 | -34.98044 | 138.48535 | 1571 ft | 195 kts | 230° |
| 2026-04-16 13:07 | -34.98967 | 138.47187 | 1928 ft | 219 kts | 229° |
| 2026-04-16 13:08 | -35.00000 | 138.45679 | 2314 ft | 243 kts | 230° |
| 2026-04-16 13:08 | -35.01113 | 138.44058 | 3037 ft | 252 kts | 231° |
| 2026-04-16 13:08 | -35.02252 | 138.42427 | 4009 ft | 253 kts | 228° |
| 2026-04-16 13:08 | -35.03775 | 138.41337 | 4922 ft | 265 kts | 197° |
| 2026-04-16 13:09 | -35.05651 | 138.41489 | 5752 ft | 282 kts | 163° |
| 2026-04-16 13:09 | -35.07377 | 138.42711 | 6594 ft | 292 kts | 146° |
| 2026-04-16 13:09 | -35.08882 | 138.44412 | 7387 ft | 301 kts | 129° |
| 2026-04-16 13:09 | -35.09832 | 138.46720 | 8136 ft | 309 kts | 110° |
| 2026-04-16 13:10 | -35.10331 | 138.49291 | 8957 ft | 314 kts | 98° |
| 2026-04-16 13:10 | -35.10410 | 138.51971 | 9730 ft | 319 kts | 86° |
| 2026-04-16 13:10 | -35.10281 | 138.54689 | 10413 ft | 325 kts | 86° |
| 2026-04-16 13:10 | -35.10137 | 138.57542 | 10638 ft | 348 kts | 86° |
| 2026-04-16 13:11 | -35.09971 | 138.60575 | 10969 ft | 365 kts | 86° |
| 2026-04-16 13:11 | -35.09785 | 138.63690 | 11555 ft | 371 kts | 85° |
| 2026-04-16 13:11 | -35.09585 | 138.66856 | 12191 ft | 377 kts | 85° |
| 2026-04-16 13:11 | -35.09374 | 138.70066 | 12809 ft | 382 kts | 85° |
| 2026-04-16 13:12 | -35.09158 | 138.73320 | 13422 ft | 387 kts | 84° |
| 2026-04-16 13:12 | -35.08942 | 138.76615 | 14043 ft | 392 kts | 84° |
| 2026-04-16 13:12 | -35.08728 | 138.79945 | 14615 ft | 395 kts | 85° |
| 2026-04-16 13:12 | -35.08516 | 138.83305 | 15172 ft | 398 kts | 85° |
| 2026-04-16 13:13 | -35.08300 | 138.86679 | 15766 ft | 400 kts | 85° |
| 2026-04-16 13:13 | -35.08079 | 138.90088 | 16325 ft | 404 kts | 85° |
| 2026-04-16 13:13 | -35.07854 | 138.93520 | 16876 ft | 408 kts | 85° |
| 2026-04-16 13:13 | -35.07625 | 138.96982 | 17433 ft | 411 kts | 85° |
| 2026-04-16 13:14 | -35.07394 | 139.00475 | 17986 ft | 414 kts | 85° |
| 2026-04-16 13:14 | -35.07160 | 139.03996 | 18515 ft | 418 kts | 84° |
| 2026-04-16 13:14 | -35.06921 | 139.07541 | 19012 ft | 421 kts | 84° |
| 2026-04-16 13:14 | -35.06677 | 139.11119 | 19500 ft | 425 kts | 84° |
| 2026-04-16 13:15 | -35.06468 | 139.14730 | 19975 ft | 429 kts | 89° |
| 2026-04-16 13:15 | -35.06675 | 139.18366 | 20461 ft | 432 kts | 101° |
| 2026-04-16 13:15 | -35.07410 | 139.21918 | 20911 ft | 432 kts | 112° |
| 2026-04-16 13:15 | -35.08639 | 139.25261 | 21365 ft | 431 kts | 123° |
| 2026-04-16 13:16 | -35.10302 | 139.28295 | 21813 ft | 430 kts | 131° |
| 2026-04-16 13:16 | -35.12118 | 139.31209 | 22264 ft | 433 kts | 131° |
| 2026-04-16 13:16 | -35.13947 | 139.34152 | 22711 ft | 436 kts | 131° |
| 2026-04-16 13:16 | -35.15784 | 139.37116 | 23153 ft | 439 kts | 131° |
| 2026-04-16 13:17 | -35.17631 | 139.40103 | 23594 ft | 442 kts | 131° |
| 2026-04-16 13:17 | -35.19488 | 139.43110 | 23974 ft | 445 kts | 131° |
| 2026-04-16 13:17 | -35.21359 | 139.46150 | 24325 ft | 448 kts | 131° |
| 2026-04-16 13:17 | -35.23238 | 139.49208 | 24689 ft | 452 kts | 131° |
| 2026-04-16 13:18 | -35.25141 | 139.52283 | 25025 ft | 454 kts | 133° |
| 2026-04-16 13:18 | -35.27088 | 139.55274 | 25363 ft | 456 kts | 134° |
| 2026-04-16 13:18 | -35.29150 | 139.58306 | 25706 ft | 459 kts | 135° |
| 2026-04-16 13:18 | -35.31226 | 139.61292 | 26043 ft | 462 kts | 136° |
| 2026-04-16 13:19 | -35.33322 | 139.64293 | 26379 ft | 465 kts | 136° |
| 2026-04-16 13:19 | -35.35390 | 139.67281 | 26708 ft | 468 kts | 135° |
| 2026-04-16 13:19 | -35.37490 | 139.70354 | 27036 ft | 472 kts | 135° |
| 2026-04-16 13:19 | -35.39591 | 139.73457 | 27354 ft | 475 kts | 135° |
| 2026-04-16 13:20 | -35.41699 | 139.76588 | 27680 ft | 478 kts | 135° |
| 2026-04-16 13:20 | -35.43818 | 139.79746 | 28001 ft | 481 kts | 135° |
| 2026-04-16 13:20 | -35.45947 | 139.82921 | 28321 ft | 484 kts | 135° |
| 2026-04-16 13:20 | -35.48092 | 139.86115 | 28647 ft | 487 kts | 135° |
| 2026-04-16 13:21 | -35.50250 | 139.89328 | 28969 ft | 490 kts | 135° |
| 2026-04-16 13:21 | -35.52424 | 139.92566 | 29290 ft | 493 kts | 135° |
| 2026-04-16 13:21 | -35.54608 | 139.95819 | 29644 ft | 496 kts | 135° |
| 2026-04-16 13:21 | -35.56808 | 139.99095 | 29969 ft | 499 kts | 135° |
| 2026-04-16 13:22 | -35.59021 | 140.02395 | 30267 ft | 502 kts | 135° |
| 2026-04-16 13:22 | -35.61244 | 140.05716 | 30536 ft | 505 kts | 135° |
| 2026-04-16 13:22 | -35.63476 | 140.09054 | 30856 ft | 505 kts | 135° |
| 2026-04-16 13:22 | -35.65707 | 140.12394 | 31248 ft | 505 kts | 135° |
| 2026-04-16 13:23 | -35.67932 | 140.15732 | 31612 ft | 505 kts | 135° |
| 2026-04-16 13:23 | -35.70160 | 140.19080 | 31973 ft | 505 kts | 135° |
| 2026-04-16 13:23 | -35.72386 | 140.22428 | 32353 ft | 506 kts | 135° |
| 2026-04-16 13:23 | -35.74615 | 140.25774 | 32720 ft | 506 kts | 135° |
| 2026-04-16 13:24 | -35.76848 | 140.29125 | 33093 ft | 506 kts | 135° |
| 2026-04-16 13:24 | -35.79080 | 140.32476 | 33478 ft | 506 kts | 135° |
| 2026-04-16 13:24 | -35.81309 | 140.35830 | 33855 ft | 506 kts | 135° |
| 2026-04-16 13:24 | -35.83537 | 140.39192 | 34200 ft | 507 kts | 135° |
| 2026-04-16 13:25 | -35.85767 | 140.42559 | 34502 ft | 507 kts | 135° |
| 2026-04-16 13:25 | -35.87997 | 140.45931 | 34757 ft | 509 kts | 135° |
| 2026-04-16 13:25 | -35.90237 | 140.49325 | 35013 ft | 510 kts | 135° |
| 2026-04-16 13:25 | -35.92476 | 140.52722 | 35260 ft | 511 kts | 135° |
| 2026-04-16 13:26 | -35.94629 | 140.55990 | 35501 ft | 512 kts | 135° |
| 2026-04-16 13:26 | -35.96877 | 140.59396 | 35748 ft | 513 kts | 135° |
| 2026-04-16 13:26 | -35.99130 | 140.62816 | 35975 ft | 514 kts | 135° |
| 2026-04-16 13:26 | -36.01383 | 140.66239 | 36240 ft | 515 kts | 135° |
| 2026-04-16 13:27 | -36.03644 | 140.69674 | 36504 ft | 515 kts | 135° |
| 2026-04-16 13:27 | -36.05906 | 140.73112 | 36732 ft | 516 kts | 135° |
| 2026-04-16 13:27 | -36.08173 | 140.76563 | 36961 ft | 517 kts | 135° |
| 2026-04-16 13:27 | -36.10439 | 140.80025 | 37086 ft | 519 kts | 135° |
| 2026-04-16 13:28 | -36.12713 | 140.83510 | 37114 ft | 521 kts | 135° |
| 2026-04-16 13:28 | -36.17274 | 140.90506 | 37099 ft | 522 kts | 135° |
| 2026-04-16 13:29 | -36.22025 | 140.97243 | 37117 ft | 513 kts | 146° |
| 2026-04-16 13:29 | -36.27764 | 141.02132 | 37112 ft | 491 kts | 164° |
| 2026-04-16 13:30 | -36.33993 | 141.05382 | 37114 ft | 485 kts | 168° |
| 2026-04-16 13:30 | -36.40238 | 141.08596 | 37142 ft | 486 kts | 167° |
| 2026-04-16 13:31 | -36.46485 | 141.11829 | 37141 ft | 486 kts | 168° |
| 2026-04-16 13:31 | -36.52733 | 141.15050 | 37129 ft | 486 kts | 168° |
| 2026-04-16 13:32 | -36.58982 | 141.18277 | 37132 ft | 486 kts | 168° |
| 2026-04-16 13:32 | -36.65220 | 141.21495 | 37111 ft | 484 kts | 168° |
| 2026-04-16 13:33 | -36.71437 | 141.24725 | 37101 ft | 484 kts | 168° |
| 2026-04-16 13:33 | -36.77661 | 141.27962 | 37102 ft | 485 kts | 168° |
| 2026-04-16 13:34 | -36.83895 | 141.31203 | 37110 ft | 485 kts | 168° |
| 2026-04-16 13:34 | -36.90134 | 141.34445 | 37147 ft | 486 kts | 168° |
| 2026-04-16 13:35 | -36.96366 | 141.37709 | 37128 ft | 486 kts | 168° |
| 2026-04-16 13:35 | -37.02598 | 141.40969 | 37117 ft | 485 kts | 168° |
| 2026-04-16 13:36 | -37.08826 | 141.44222 | 37150 ft | 485 kts | 168° |
| 2026-04-16 13:36 | -37.15004 | 141.47466 | 37114 ft | 484 kts | 168° |
| 2026-04-16 13:37 | -37.21210 | 141.50731 | 37110 ft | 484 kts | 168° |
| 2026-04-16 13:37 | -37.27420 | 141.53999 | 37106 ft | 484 kts | 168° |
| 2026-04-16 13:38 | -37.33509 | 141.57785 | 37139 ft | 501 kts | 154° |
| 2026-04-16 13:38 | -37.37873 | 141.62849 | 37124 ft | 520 kts | 135° |
| 2026-04-16 13:39 | -37.42351 | 141.70030 | 37105 ft | 522 kts | 134° |
| 2026-04-16 13:39 | -37.46836 | 141.77212 | 37099 ft | 522 kts | 134° |
| 2026-04-16 13:40 | -37.51328 | 141.84408 | 37118 ft | 523 kts | 134° |
| 2026-04-16 13:40 | -37.55811 | 141.91612 | 37115 ft | 522 kts | 134° |
| 2026-04-16 13:41 | -37.60259 | 141.98772 | 37115 ft | 522 kts | 134° |
| 2026-04-16 13:41 | -37.64729 | 142.05985 | 37131 ft | 522 kts | 134° |
| 2026-04-16 13:42 | -37.69189 | 142.13214 | 37115 ft | 522 kts | 134° |
| 2026-04-16 13:42 | -37.73649 | 142.20449 | 37105 ft | 522 kts | 134° |
| 2026-04-16 13:43 | -37.77985 | 142.27841 | 37103 ft | 529 kts | 124° |
| 2026-04-16 13:43 | -37.79543 | 142.32073 | 37101 ft | 535 kts | 111° |
| 2026-04-16 13:43 | -37.80463 | 142.36633 | 37097 ft | 537 kts | 98° |
| 2026-04-16 13:44 | -37.80877 | 142.46050 | 37078 ft | 537 kts | 91° |
| 2026-04-16 13:44 | -37.81121 | 142.55485 | 36149 ft | 538 kts | 91° |
| 2026-04-16 13:44 | -37.81248 | 142.60273 | 34809 ft | 548 kts | 91° |
| 2026-04-16 13:45 | -37.81377 | 142.65080 | 33856 ft | 546 kts | 91° |
| 2026-04-16 13:45 | -37.81498 | 142.69852 | 32940 ft | 540 kts | 91° |
| 2026-04-16 13:45 | -37.81616 | 142.74560 | 32104 ft | 532 kts | 91° |
| 2026-04-16 13:45 | -37.81731 | 142.79210 | 31310 ft | 525 kts | 91° |
| 2026-04-16 13:46 | -37.81842 | 142.83790 | 30518 ft | 518 kts | 91° |
| 2026-04-16 13:46 | -37.81949 | 142.88310 | 29667 ft | 511 kts | 91° |
| 2026-04-16 13:46 | -37.82051 | 142.92758 | 28766 ft | 502 kts | 91° |
| 2026-04-16 13:46 | -37.82149 | 142.97137 | 27962 ft | 494 kts | 91° |
| 2026-04-16 13:47 | -37.82244 | 143.01449 | 27170 ft | 487 kts | 91° |
| 2026-04-16 13:47 | -37.82335 | 143.05695 | 26378 ft | 480 kts | 91° |
| 2026-04-16 13:47 | -37.82424 | 143.09882 | 25625 ft | 473 kts | 91° |
| 2026-04-16 13:47 | -37.82512 | 143.14010 | 24907 ft | 467 kts | 91° |
| 2026-04-16 13:48 | -37.82598 | 143.18086 | 24217 ft | 460 kts | 91° |
| 2026-04-16 13:48 | -37.82684 | 143.22106 | 23506 ft | 454 kts | 92° |
| 2026-04-16 13:48 | -37.82769 | 143.26071 | 22701 ft | 448 kts | 91° |
| 2026-04-16 13:48 | -37.82847 | 143.29976 | 21908 ft | 442 kts | 91° |
| 2026-04-16 13:49 | -37.82921 | 143.33836 | 21134 ft | 436 kts | 91° |
| 2026-04-16 13:49 | -37.82993 | 143.37635 | 20366 ft | 429 kts | 91° |
| 2026-04-16 13:49 | -37.83063 | 143.41384 | 19619 ft | 424 kts | 91° |
| 2026-04-16 13:49 | -37.83130 | 143.45091 | 18868 ft | 418 kts | 91° |
| 2026-04-16 13:50 | -37.83197 | 143.48743 | 18142 ft | 413 kts | 91° |
| 2026-04-16 13:50 | -37.83265 | 143.52349 | 17347 ft | 408 kts | 91° |
| 2026-04-16 13:50 | -37.83332 | 143.55914 | 16545 ft | 403 kts | 91° |
| 2026-04-16 13:50 | -37.83394 | 143.59441 | 15776 ft | 399 kts | 91° |
| 2026-04-16 13:51 | -37.83454 | 143.62929 | 15051 ft | 394 kts | 91° |
| 2026-04-16 13:51 | -37.83513 | 143.66362 | 14506 ft | 386 kts | 91° |
| 2026-04-16 13:51 | -37.83571 | 143.69706 | 14059 ft | 375 kts | 91° |
| 2026-04-16 13:51 | -37.83626 | 143.72967 | 13586 ft | 366 kts | 91° |
| 2026-04-16 13:52 | -37.83678 | 143.76148 | 13148 ft | 357 kts | 91° |
| 2026-04-16 13:52 | -37.83727 | 143.79247 | 12722 ft | 348 kts | 91° |
| 2026-04-16 13:52 | -37.83774 | 143.82270 | 12308 ft | 340 kts | 91° |
| 2026-04-16 13:52 | -37.83821 | 143.85228 | 11904 ft | 333 kts | 91° |
| 2026-04-16 13:53 | -37.83866 | 143.88143 | 11500 ft | 331 kts | 91° |
| 2026-04-16 13:53 | -37.83908 | 143.91070 | 11098 ft | 334 kts | 91° |
| 2026-04-16 13:53 | -37.83949 | 143.94021 | 10698 ft | 337 kts | 91° |
| 2026-04-16 13:53 | -37.83987 | 143.96946 | 10357 ft | 337 kts | 89° |
| 2026-04-16 13:54 | -37.83761 | 143.99937 | 9997 ft | 338 kts | 80° |
| 2026-04-16 13:54 | -37.83413 | 144.02841 | 9600 ft | 339 kts | 80° |
| 2026-04-16 13:54 | -37.83061 | 144.05784 | 9227 ft | 339 kts | 80° |
| 2026-04-16 13:54 | -37.82710 | 144.08733 | 8847 ft | 339 kts | 80° |
| 2026-04-16 13:55 | -37.82365 | 144.11662 | 8568 ft | 335 kts | 80° |
| 2026-04-16 13:55 | -37.82022 | 144.14570 | 8278 ft | 332 kts | 80° |
| 2026-04-16 13:55 | -37.81685 | 144.17431 | 7833 ft | 327 kts | 81° |
| 2026-04-16 13:55 | -37.81351 | 144.20243 | 7352 ft | 320 kts | 81° |
| 2026-04-16 13:56 | -37.81023 | 144.22997 | 6893 ft | 313 kts | 81° |
| 2026-04-16 13:56 | -37.80704 | 144.25655 | 6604 ft | 300 kts | 81° |
| 2026-04-16 13:56 | -37.80398 | 144.28209 | 6258 ft | 290 kts | 81° |
| 2026-04-16 13:56 | -37.80098 | 144.30692 | 5921 ft | 281 kts | 81° |
| 2026-04-16 13:57 | -37.79803 | 144.33124 | 5597 ft | 279 kts | 81° |
| 2026-04-16 13:57 | -37.79512 | 144.35545 | 5267 ft | 277 kts | 82° |
| 2026-04-16 13:57 | -37.79222 | 144.37963 | 4945 ft | 279 kts | 82° |
| 2026-04-16 13:58 | -37.78971 | 144.42875 | 4368 ft | 286 kts | 103° |
| 2026-04-16 13:58 | -37.79604 | 144.45248 | 4315 ft | 284 kts | 122° |
| 2026-04-16 13:58 | -37.80734 | 144.47248 | 4212 ft | 275 kts | 140° |
| 2026-04-16 13:58 | -37.82197 | 144.48696 | 4004 ft | 262 kts | 156° |
| 2026-04-16 13:59 | -37.83847 | 144.49546 | 3745 ft | 251 kts | 173° |
| 2026-04-16 13:59 | -37.85549 | 144.49788 | 3452 ft | 243 kts | 188° |
| 2026-04-16 13:59 | -37.87207 | 144.49551 | 3137 ft | 240 kts | 193° |
| 2026-04-16 13:59 | -37.88855 | 144.49274 | 2813 ft | 236 kts | 193° |
| 2026-04-16 14:00 | -37.90436 | 144.49011 | 2506 ft | 221 kts | 193° |
| 2026-04-16 14:00 | -37.91883 | 144.48772 | 2205 ft | 199 kts | 193° |
| 2026-04-16 14:00 | -37.93212 | 144.48549 | 1971 ft | 184 kts | 195° |
| 2026-04-16 14:00 | -37.94414 | 144.48348 | 1733 ft | 165 kts | 194° |
| 2026-04-16 14:01 | -37.95505 | 144.48164 | 1478 ft | 152 kts | 193° |
| 2026-04-16 14:01 | -37.96515 | 144.47992 | 1293 ft | 143 kts | 193° |
| 2026-04-16 14:01 | -37.97511 | 144.47822 | 1092 ft | 144 kts | 193° |
| 2026-04-16 14:01 | -37.98500 | 144.47655 | 900 ft | 142 kts | 191° |
| 2026-04-16 14:02 | -37.99496 | 144.47486 | 720 ft | 145 kts | 193° |
| 2026-04-16 14:02 | -38.00498 | 144.47320 | 521 ft | 145 kts | 193° |
| 2026-04-16 14:02 | -38.01493 | 144.47153 | 351 ft | 146 kts | 193° |
| 2026-04-16 14:02 | -38.02519 | 144.46978 | 140 ft | 147 kts | 193° |
| 2026-04-16 14:03 | -38.03513 | 144.46820 | 30 ft | 146 kts | 191° |
| 2026-04-16 14:03 | -38.04400 | 144.46651 | 27 ft | 105 kts | 190° |
| 2026-04-16 14:03 | -38.04953 | 144.46560 | 27 ft | 55 kts | 187° |
| 2026-04-16 14:03 | -38.05168 | 144.46526 | 27 ft | 28 kts | 188° |
| 2026-04-16 14:04 | -38.05327 | 144.46499 | 28 ft | 22 kts | 188° |
| 2026-04-16 14:04 | -38.05443 | 144.46530 | 27 ft | 13 kts | 109° |
| 2026-04-16 14:04 | -38.05435 | 144.46633 | 27 ft | 13 kts | 73° |
| 2026-04-16 14:04 | -38.05367 | 144.46708 | 27 ft | 14 kts | 16° |
| 2026-04-16 14:05 | -38.05259 | 144.46728 | 27 ft | 17 kts | 8° |
| 2026-04-16 14:05 | -38.05146 | 144.46748 | 27 ft | 18 kts | 8° |
| 2026-04-16 14:05 | -38.05015 | 144.46770 | 27 ft | 20 kts | 7° |
| 2026-04-16 14:05 | -38.04868 | 144.46793 | 27 ft | 23 kts | 6° |
| 2026-04-16 14:06 | -38.04717 | 144.46819 | 27 ft | 22 kts | 7° |
| 2026-04-16 14:06 | -38.04560 | 144.46845 | 27 ft | 24 kts | 7° |
| 2026-04-16 14:06 | -38.04386 | 144.46873 | 27 ft | 26 kts | 6° |
| 2026-04-16 14:06 | -38.04207 | 144.46905 | 27 ft | 24 kts | 7° |
| 2026-04-16 14:07 | -38.04031 | 144.46935 | 26 ft | 27 kts | 7° |
| 2026-04-16 14:07 | -38.03852 | 144.46964 | 27 ft | 24 kts | 7° |
| 2026-04-16 14:07 | -38.03677 | 144.46992 | 27 ft | 26 kts | 8° |
| 2026-04-16 14:07 | -38.03499 | 144.47024 | 27 ft | 22 kts | 8° |
| 2026-04-16 14:08 | -38.03345 | 144.47052 | 27 ft | 20 kts | 12° |
| 2026-04-16 14:08 | -38.03232 | 144.47158 | 27 ft | 17 kts | 54° |
| 2026-04-16 14:08 | -38.03153 | 144.47274 | 27 ft | 19 kts | 37° |
| 2026-04-16 14:08 | -38.03025 | 144.47333 | 27 ft | 21 kts | 10° |
| 2026-04-16 14:09 | -38.02885 | 144.47356 | 27 ft | 18 kts | 7° |
| 2026-04-16 14:09 | -38.02796 | 144.47314 | 27 ft | 15 kts | 284° |
| 2026-04-16 14:09 | -38.02777 | 144.47207 | 26 ft | 6 kts | 333° |
| 2026-04-16 14:09 | -38.02734 | 144.47209 | 26 ft | 5 kts | 6° |
| 2026-04-16 14:10 | -38.02714 | 144.47212 | 26 ft | 2 kts | 7° |